sensor_id;sensor_type;location;lat;lon;timestamp;pressure;altitude;pressure_sealevel;temperature;humidity
11525;BME280;5819;49.648;8.330;2024-01-30T00:02:19;101858.91;;;1.14;100.00
11525;BME280;5819;49.648;8.330;2024-01-30T00:04:47;101856.50;;;1.21;100.00
11525;BME280;5819;49.648;8.330;2024-01-30T00:07:15;101854.94;;;1.28;100.00
11525;BME280;5819;49.648;8.330;2024-01-30T00:09:43;101852.38;;;1.29;100.00
11525;BME280;5819;49.648;8.330;2024-01-30T00:12:11;101855.88;;;1.33;100.00
11525;BME280;5819;49.648;8.330;2024-01-30T00:14:41;101856.88;;;1.41;100.00
11525;BME280;5819;49.648;8.330;2024-01-30T00:17:10;101851.84;;;1.44;100.00
11525;BME280;5819;49.648;8.330;2024-01-30T00:19:38;101855.31;;;1.49;100.00
11525;BME280;5819;49.648;8.330;2024-01-30T00:22:06;101857.13;;;1.53;100.00
11525;BME280;5819;49.648;8.330;2024-01-30T00:24:34;101846.94;;;1.56;100.00
11525;BME280;5819;49.648;8.330;2024-01-30T00:27:02;101859.69;;;1.53;100.00
11525;BME280;5819;49.648;8.330;2024-01-30T00:29:30;101860.44;;;1.49;100.00
11525;BME280;5819;49.648;8.330;2024-01-30T00:32:00;101858.66;;;1.45;100.00
11525;BME280;5819;49.648;8.330;2024-01-30T00:34:29;101862.63;;;1.28;100.00
11525;BME280;5819;49.648;8.330;2024-01-30T00:36:57;101865.06;;;1.22;100.00
11525;BME280;5819;49.648;8.330;2024-01-30T00:39:25;101873.66;;;1.24;100.00
11525;BME280;5819;49.648;8.330;2024-01-30T00:41:54;101874.34;;;1.15;100.00
11525;BME280;5819;49.648;8.330;2024-01-30T00:44:22;101868.28;;;1.13;100.00
11525;BME280;5819;49.648;8.330;2024-01-30T00:46:50;101872.63;;;1.16;100.00
11525;BME280;5819;49.648;8.330;2024-01-30T00:49:17;101860.59;;;1.13;100.00
11525;BME280;5819;49.648;8.330;2024-01-30T00:51:47;101864.84;;;1.11;100.00
11525;BME280;5819;49.648;8.330;2024-01-30T00:54:15;101866.53;;;1.11;100.00
11525;BME280;5819;49.648;8.330;2024-01-30T00:56:42;101860.44;;;1.06;100.00
11525;BME280;5819;49.648;8.330;2024-01-30T00:59:11;101868.81;;;0.97;100.00
11525;BME280;5819;49.648;8.330;2024-01-30T01:01:38;101866.13;;;0.91;100.00
11525;BME280;5819;49.648;8.330;2024-01-30T01:04:06;101865.09;;;0.83;100.00
11525;BME280;5819;49.648;8.330;2024-01-30T01:06:34;101857.53;;;0.89;100.00
11525;BME280;5819;49.648;8.330;2024-01-30T01:09:04;101860.09;;;0.89;100.00
11525;BME280;5819;49.648;8.330;2024-01-30T01:11:32;101860.34;;;1.01;100.00
11525;BME280;5819;49.648;8.330;2024-01-30T01:13:59;101857.78;;;1.00;100.00
11525;BME280;5819;49.648;8.330;2024-01-30T01:16:27;101862.66;;;0.89;100.00
11525;BME280;5819;49.648;8.330;2024-01-30T01:18:55;101862.81;;;0.97;100.00
11525;BME280;5819;49.648;8.330;2024-01-30T01:21:23;101864.56;;;0.98;100.00
11525;BME280;5819;49.648;8.330;2024-01-30T01:23:52;101858.72;;;1.05;100.00
11525;BME280;5819;49.648;8.330;2024-01-30T01:26:21;101857.34;;;1.20;100.00
11525;BME280;5819;49.648;8.330;2024-01-30T01:28:48;101847.22;;;1.26;100.00
11525;BME280;5819;49.648;8.330;2024-01-30T01:31:16;101849.88;;;1.32;100.00
11525;BME280;5819;49.648;8.330;2024-01-30T01:33:45;101849.19;;;1.39;100.00
11525;BME280;5819;49.648;8.330;2024-01-30T01:36:13;101845.97;;;1.51;100.00
11525;BME280;5819;49.648;8.330;2024-01-30T01:38:41;101854.41;;;1.46;100.00
11525;BME280;5819;49.648;8.330;2024-01-30T01:41:09;101859.16;;;1.24;100.00
11525;BME280;5819;49.648;8.330;2024-01-30T01:43:38;101860.50;;;1.07;100.00
11525;BME280;5819;49.648;8.330;2024-01-30T01:46:06;101863.63;;;0.94;100.00
11525;BME280;5819;49.648;8.330;2024-01-30T01:48:36;101860.09;;;0.87;100.00
11525;BME280;5819;49.648;8.330;2024-01-30T01:51:06;101858.41;;;0.88;100.00
11525;BME280;5819;49.648;8.330;2024-01-30T01:53:34;101864.34;;;0.87;100.00
11525;BME280;5819;49.648;8.330;2024-01-30T01:56:03;101852.00;;;1.10;100.00
11525;BME280;5819;49.648;8.330;2024-01-30T01:58:31;101851.38;;;1.21;100.00
11525;BME280;5819;49.648;8.330;2024-01-30T02:01:01;101844.69;;;1.29;100.00
11525;BME280;5819;49.648;8.330;2024-01-30T02:03:30;101850.84;;;1.36;100.00
11525;BME280;5819;49.648;8.330;2024-01-30T02:05:58;101851.84;;;1.44;100.00
11525;BME280;5819;49.648;8.330;2024-01-30T02:08:26;101846.63;;;1.39;100.00
11525;BME280;5819;49.648;8.330;2024-01-30T02:10:54;101852.44;;;1.32;100.00
11525;BME280;5819;49.648;8.330;2024-01-30T02:13:22;101851.28;;;1.15;100.00
11525;BME280;5819;49.648;8.330;2024-01-30T02:15:51;101851.91;;;1.05;100.00
11525;BME280;5819;49.648;8.330;2024-01-30T02:18:20;101850.88;;;0.96;100.00
11525;BME280;5819;49.648;8.330;2024-01-30T02:20:48;101843.94;;;0.91;100.00
11525;BME280;5819;49.648;8.330;2024-01-30T02:23:18;101850.50;;;0.79;100.00
11525;BME280;5819;49.648;8.330;2024-01-30T02:25:46;101851.44;;;0.82;100.00
11525;BME280;5819;49.648;8.330;2024-01-30T02:28:15;101849.53;;;0.74;100.00
11525;BME280;5819;49.648;8.330;2024-01-30T02:30:43;101849.41;;;0.68;100.00
11525;BME280;5819;49.648;8.330;2024-01-30T02:33:12;101851.88;;;0.65;100.00
11525;BME280;5819;49.648;8.330;2024-01-30T02:35:40;101848.28;;;0.57;100.00
11525;BME280;5819;49.648;8.330;2024-01-30T02:38:09;101843.16;;;0.55;100.00
11525;BME280;5819;49.648;8.330;2024-01-30T02:40:38;101852.91;;;0.71;100.00
11525;BME280;5819;49.648;8.330;2024-01-30T02:43:05;101849.25;;;1.01;100.00
11525;BME280;5819;49.648;8.330;2024-01-30T02:45:33;101844.75;;;1.31;100.00
11525;BME280;5819;49.648;8.330;2024-01-30T02:48:02;101842.38;;;1.41;100.00
11525;BME280;5819;49.648;8.330;2024-01-30T02:50:29;101838.53;;;1.65;100.00
11525;BME280;5819;49.648;8.330;2024-01-30T02:52:57;101836.22;;;1.78;100.00
11525;BME280;5819;49.648;8.330;2024-01-30T02:55:25;101831.31;;;1.94;100.00
11525;BME280;5819;49.648;8.330;2024-01-30T02:57:55;101829.78;;;2.05;100.00
11525;BME280;5819;49.648;8.330;2024-01-30T03:00:23;101838.41;;;2.07;100.00
11525;BME280;5819;49.648;8.330;2024-01-30T03:02:51;101829.78;;;2.05;100.00
11525;BME280;5819;49.648;8.330;2024-01-30T03:05:19;101824.72;;;2.09;100.00
11525;BME280;5819;49.648;8.330;2024-01-30T03:07:47;101825.56;;;2.07;100.00
11525;BME280;5819;49.648;8.330;2024-01-30T03:10:15;101827.31;;;2.09;100.00
11525;BME280;5819;49.648;8.330;2024-01-30T03:12:43;101814.53;;;2.12;100.00
11525;BME280;5819;49.648;8.330;2024-01-30T03:15:13;101812.91;;;2.19;100.00
11525;BME280;5819;49.648;8.330;2024-01-30T03:17:41;101812.88;;;2.16;100.00
11525;BME280;5819;49.648;8.330;2024-01-30T03:20:10;101817.13;;;2.14;100.00
11525;BME280;5819;49.648;8.330;2024-01-30T03:22:38;101822.25;;;2.12;100.00
11525;BME280;5819;49.648;8.330;2024-01-30T03:25:06;101823.00;;;2.07;100.00
11525;BME280;5819;49.648;8.330;2024-01-30T03:27:34;101823.66;;;1.97;100.00
11525;BME280;5819;49.648;8.330;2024-01-30T03:30:03;101825.31;;;1.92;100.00
11525;BME280;5819;49.648;8.330;2024-01-30T03:32:32;101825.28;;;1.90;100.00
11525;BME280;5819;49.648;8.330;2024-01-30T03:35:00;101823.53;;;1.87;100.00
11525;BME280;5819;49.648;8.330;2024-01-30T03:37:28;101828.59;;;1.83;100.00
11525;BME280;5819;49.648;8.330;2024-01-30T03:39:56;101825.16;;;1.82;100.00
11525;BME280;5819;49.648;8.330;2024-01-30T03:42:24;101828.63;;;1.84;100.00
11525;BME280;5819;49.648;8.330;2024-01-30T03:44:52;101826.91;;;1.85;100.00
11525;BME280;5819;49.648;8.330;2024-01-30T03:47:21;101829.59;;;1.91;100.00
11525;BME280;5819;49.648;8.330;2024-01-30T03:49:51;101826.19;;;1.92;100.00
11525;BME280;5819;49.648;8.330;2024-01-30T03:52:19;101833.06;;;1.95;100.00
11525;BME280;5819;49.648;8.330;2024-01-30T03:54:47;101830.53;;;1.98;100.00
11525;BME280;5819;49.648;8.330;2024-01-30T03:57:15;101827.88;;;1.92;100.00
11525;BME280;5819;49.648;8.330;2024-01-30T03:59:43;101827.94;;;1.95;100.00
11525;BME280;5819;49.648;8.330;2024-01-30T04:02:11;101827.97;;;1.98;100.00
11525;BME280;5819;49.648;8.330;2024-01-30T04:04:39;101821.19;;;2.01;100.00
11525;BME280;5819;49.648;8.330;2024-01-30T04:07:09;101824.50;;;1.94;100.00
11525;BME280;5819;49.648;8.330;2024-01-30T04:09:38;101826.28;;;1.98;100.00
11525;BME280;5819;49.648;8.330;2024-01-30T04:12:06;101820.41;;;2.05;100.00
11525;BME280;5819;49.648;8.330;2024-01-30T04:14:34;101822.88;;;1.99;100.00
11525;BME280;5819;49.648;8.330;2024-01-30T04:17:03;101818.53;;;1.95;100.00
11525;BME280;5819;49.648;8.330;2024-01-30T04:19:31;101815.97;;;1.97;100.00
11525;BME280;5819;49.648;8.330;2024-01-30T04:21:58;101822.91;;;2.02;100.00
11525;BME280;5819;49.648;8.330;2024-01-30T04:24:28;101817.06;;;2.11;100.00
11525;BME280;5819;49.648;8.330;2024-01-30T04:26:55;101810.22;;;2.10;100.00
11525;BME280;5819;49.648;8.330;2024-01-30T04:29:25;101816.97;;;2.05;100.00
11525;BME280;5819;49.648;8.330;2024-01-30T04:31:52;101812.78;;;2.08;100.00
11525;BME280;5819;49.648;8.330;2024-01-30T04:34:20;101821.34;;;2.10;100.00
11525;BME280;5819;49.648;8.330;2024-01-30T04:36:48;101828.09;;;2.04;100.00
11525;BME280;5819;49.648;8.330;2024-01-30T04:39:16;101821.19;;;2.00;100.00
11525;BME280;5819;49.648;8.330;2024-01-30T04:41:45;101825.31;;;1.93;100.00
11525;BME280;5819;49.648;8.330;2024-01-30T04:44:12;101832.94;;;1.87;100.00
11525;BME280;5819;49.648;8.330;2024-01-30T04:46:40;101833.75;;;1.84;100.00
11525;BME280;5819;49.648;8.330;2024-01-30T04:49:09;101823.25;;;1.71;100.00
11525;BME280;5819;49.648;8.330;2024-01-30T04:51:37;101822.47;;;1.75;100.00
11525;BME280;5819;49.648;8.330;2024-01-30T04:54:05;101822.44;;;1.72;100.00
11525;BME280;5819;49.648;8.330;2024-01-30T04:56:32;101825.03;;;1.75;100.00
11525;BME280;5819;49.648;8.330;2024-01-30T04:59:03;101827.50;;;1.70;100.00
11525;BME280;5819;49.648;8.330;2024-01-30T05:01:31;101826.56;;;1.64;100.00
11525;BME280;5819;49.648;8.330;2024-01-30T05:04:00;101831.78;;;1.70;100.00
11525;BME280;5819;49.648;8.330;2024-01-30T05:06:30;101835.34;;;1.76;100.00
11525;BME280;5819;49.648;8.330;2024-01-30T05:08:58;101831.91;;;1.76;100.00
11525;BME280;5819;49.648;8.330;2024-01-30T05:11:26;101837.94;;;1.79;100.00
11525;BME280;5819;49.648;8.330;2024-01-30T05:13:53;101839.69;;;1.80;100.00
11525;BME280;5819;49.648;8.330;2024-01-30T05:16:22;101842.16;;;1.77;100.00
11525;BME280;5819;49.648;8.330;2024-01-30T05:18:50;101840.47;;;1.76;100.00
11525;BME280;5819;49.648;8.330;2024-01-30T05:21:18;101841.41;;;1.83;100.00
11525;BME280;5819;49.648;8.330;2024-01-30T05:23:46;101839.72;;;1.83;100.00
11525;BME280;5819;49.648;8.330;2024-01-30T05:26:14;101841.34;;;1.78;100.00
11525;BME280;5819;49.648;8.330;2024-01-30T05:28:42;101847.28;;;1.77;100.00
11525;BME280;5819;49.648;8.330;2024-01-30T05:31:11;101846.38;;;1.74;100.00
11525;BME280;5819;49.648;8.330;2024-01-30T05:33:40;101845.28;;;1.61;100.00
11525;BME280;5819;49.648;8.330;2024-01-30T05:36:11;101858.81;;;1.53;100.00
11525;BME280;5819;49.648;8.330;2024-01-30T05:38:39;101847.69;;;1.51;100.00
11525;BME280;5819;49.648;8.330;2024-01-30T05:41:08;101853.72;;;1.54;100.00
11525;BME280;5819;49.648;8.330;2024-01-30T05:43:36;101857.94;;;1.51;100.00
11525;BME280;5819;49.648;8.330;2024-01-30T05:46:04;101853.72;;;1.54;100.00
11525;BME280;5819;49.648;8.330;2024-01-30T05:48:32;101855.41;;;1.54;100.00
11525;BME280;5819;49.648;8.330;2024-01-30T05:51:03;101855.47;;;1.55;100.00
11525;BME280;5819;49.648;8.330;2024-01-30T05:53:32;101852.91;;;1.57;100.00
11525;BME280;5819;49.648;8.330;2024-01-30T05:56:01;101851.25;;;1.59;100.00
11525;BME280;5819;49.648;8.330;2024-01-30T05:58:29;101852.03;;;1.55;100.00
11525;BME280;5819;49.648;8.330;2024-01-30T06:00:58;101849.50;;;1.58;100.00
11525;BME280;5819;49.648;8.330;2024-01-30T06:03:26;101848.63;;;1.57;100.00
11525;BME280;5819;49.648;8.330;2024-01-30T06:05:54;101848.59;;;1.54;100.00
11525;BME280;5819;49.648;8.330;2024-01-30T06:08:23;101845.94;;;1.48;100.00
11525;BME280;5819;49.648;8.330;2024-01-30T06:10:51;101849.31;;;1.47;100.00
11525;BME280;5819;49.648;8.330;2024-01-30T06:13:19;101847.63;;;1.49;100.00
11525;BME280;5819;49.648;8.330;2024-01-30T06:15:47;101845.13;;;1.51;100.00
11525;BME280;5819;49.648;8.330;2024-01-30T06:18:15;101848.50;;;1.48;100.00
11525;BME280;5819;49.648;8.330;2024-01-30T06:20:43;101853.53;;;1.45;100.00
11525;BME280;5819;49.648;8.330;2024-01-30T06:23:11;101850.88;;;1.39;100.00
11525;BME280;5819;49.648;8.330;2024-01-30T06:25:40;101849.09;;;1.35;100.00
11525;BME280;5819;49.648;8.330;2024-01-30T06:28:09;101853.31;;;1.33;100.00
11525;BME280;5819;49.648;8.330;2024-01-30T06:30:37;101853.25;;;1.28;100.00
11525;BME280;5819;49.648;8.330;2024-01-30T06:33:04;101855.63;;;1.21;100.00
11525;BME280;5819;49.648;8.330;2024-01-30T06:35:32;101852.97;;;1.15;100.00
11525;BME280;5819;49.648;8.330;2024-01-30T06:38:02;101858.03;;;1.12;100.00
11525;BME280;5819;49.648;8.330;2024-01-30T06:40:30;101861.38;;;1.09;100.00
11525;BME280;5819;49.648;8.330;2024-01-30T06:43:00;101860.50;;;1.07;100.00
11525;BME280;5819;49.648;8.330;2024-01-30T06:45:28;101868.16;;;1.06;100.00
11525;BME280;5819;49.648;8.330;2024-01-30T06:47:56;101861.41;;;1.11;100.00
11525;BME280;5819;49.648;8.330;2024-01-30T06:50:25;101866.66;;;1.17;100.00
11525;BME280;5819;49.648;8.330;2024-01-30T06:52:53;101861.63;;;1.21;100.00
11525;BME280;5819;49.648;8.330;2024-01-30T06:55:22;101861.63;;;1.20;100.00
11525;BME280;5819;49.648;8.330;2024-01-30T06:57:51;101862.41;;;1.17;100.00
11525;BME280;5819;49.648;8.330;2024-01-30T07:00:20;101861.56;;;1.18;100.00
11525;BME280;5819;49.648;8.330;2024-01-30T07:02:49;101857.31;;;1.19;100.00
11525;BME280;5819;49.648;8.330;2024-01-30T07:05:17;101868.38;;;1.16;100.00
11525;BME280;5819;49.648;8.330;2024-01-30T07:07:44;101872.69;;;1.19;100.00
11525;BME280;5819;49.648;8.330;2024-01-30T07:10:13;101866.66;;;1.15;100.00
11525;BME280;5819;49.648;8.330;2024-01-30T07:12:41;101865.63;;;1.09;100.00
11525;BME280;5819;49.648;8.330;2024-01-30T07:15:09;101871.88;;;1.20;100.00
11525;BME280;5819;49.648;8.330;2024-01-30T07:17:39;101867.53;;;1.17;100.00
11525;BME280;5819;49.648;8.330;2024-01-30T07:20:09;101872.66;;;1.17;100.00
11525;BME280;5819;49.648;8.330;2024-01-30T07:22:43;101874.28;;;1.12;100.00
11525;BME280;5819;49.648;8.330;2024-01-30T07:25:11;101872.56;;;1.13;100.00
11525;BME280;5819;49.648;8.330;2024-01-30T07:27:39;101867.47;;;1.14;100.00
11525;BME280;5819;49.648;8.330;2024-01-30T07:30:07;101875.19;;;1.16;100.00
11525;BME280;5819;49.648;8.330;2024-01-30T07:32:35;101876.91;;;1.17;100.00
11525;BME280;5819;49.648;8.330;2024-01-30T07:35:05;101878.78;;;1.24;100.00
11525;BME280;5819;49.648;8.330;2024-01-30T07:37:35;101885.75;;;1.31;100.00
11525;BME280;5819;49.648;8.330;2024-01-30T07:40:04;101882.41;;;1.35;100.00
11525;BME280;5819;49.648;8.330;2024-01-30T07:42:33;101882.41;;;1.35;100.00
11525;BME280;5819;49.648;8.330;2024-01-30T07:45:02;101881.69;;;1.42;100.00
11525;BME280;5819;49.648;8.330;2024-01-30T07:47:29;101883.44;;;1.43;100.00
11525;BME280;5819;49.648;8.330;2024-01-30T07:49:57;101881.81;;;1.48;100.00
11525;BME280;5819;49.648;8.330;2024-01-30T07:52:27;101888.75;;;1.54;100.00
11525;BME280;5819;49.648;8.330;2024-01-30T07:54:55;101884.53;;;1.57;100.00
11525;BME280;5819;49.648;8.330;2024-01-30T07:57:23;101882.91;;;1.61;100.00
11525;BME280;5819;49.648;8.330;2024-01-30T07:59:51;101882.25;;;1.71;100.00
11525;BME280;5819;49.648;8.330;2024-01-30T08:02:18;101885.81;;;1.79;100.00
11525;BME280;5819;49.648;8.330;2024-01-30T08:04:47;101892.72;;;1.83;100.00
11525;BME280;5819;49.648;8.330;2024-01-30T08:07:17;101886.06;;;1.93;100.00
11525;BME280;5819;49.648;8.330;2024-01-30T08:09:47;101886.28;;;2.06;100.00
11525;BME280;5819;49.648;8.330;2024-01-30T08:12:15;101892.44;;;2.17;100.00
11525;BME280;5819;49.648;8.330;2024-01-30T08:14:44;101888.34;;;2.27;100.00
11525;BME280;5819;49.648;8.330;2024-01-30T08:17:12;101889.38;;;2.37;100.00
11525;BME280;5819;49.648;8.330;2024-01-30T08:19:40;101890.19;;;2.37;100.00
11525;BME280;5819;49.648;8.330;2024-01-30T08:22:08;101891.19;;;2.45;100.00
11525;BME280;5819;49.648;8.330;2024-01-30T08:24:36;101884.38;;;2.47;100.00
11525;BME280;5819;49.648;8.330;2024-01-30T08:27:06;101888.72;;;2.51;100.00
11525;BME280;5819;49.648;8.330;2024-01-30T08:29:36;101875.06;;;2.54;100.00
11525;BME280;5819;49.648;8.330;2024-01-30T08:32:05;101876.78;;;2.55;100.00
11525;BME280;5819;49.648;8.330;2024-01-30T08:34:33;101877.56;;;2.49;100.00
11525;BME280;5819;49.648;8.330;2024-01-30T08:37:01;101877.63;;;2.54;100.00
11525;BME280;5819;49.648;8.330;2024-01-30T08:39:28;101866.47;;;2.53;100.00
11525;BME280;5819;49.648;8.330;2024-01-30T08:41:56;101868.22;;;2.54;100.00
11525;BME280;5819;49.648;8.330;2024-01-30T08:44:26;101872.50;;;2.52;100.00
11525;BME280;5819;49.648;8.330;2024-01-30T08:46:54;101869.84;;;2.48;100.00
11525;BME280;5819;49.648;8.330;2024-01-30T08:49:23;101884.25;;;2.38;100.00
11525;BME280;5819;49.648;8.330;2024-01-30T08:51:51;101886.84;;;2.40;100.00
11525;BME280;5819;49.648;8.330;2024-01-30T08:54:19;101886.91;;;2.44;100.00
11525;BME280;5819;49.648;8.330;2024-01-30T08:56:47;101883.66;;;2.56;100.00
11525;BME280;5819;49.648;8.330;2024-01-30T08:59:15;101887.22;;;2.64;100.00
11525;BME280;5819;49.648;8.330;2024-01-30T09:01:45;101880.47;;;2.73;100.00
11525;BME280;5819;49.648;8.330;2024-01-30T09:04:29;101875.41;;;2.78;100.00
11525;BME280;5819;49.648;8.330;2024-01-30T09:06:57;101875.44;;;2.81;100.00
11525;BME280;5819;49.648;8.330;2024-01-30T09:09:25;101877.25;;;2.87;100.00
11525;BME280;5819;49.648;8.330;2024-01-30T09:11:53;101875.59;;;2.92;100.00
11525;BME280;5819;49.648;8.330;2024-01-30T09:14:21;101882.53;;;2.99;100.00
11525;BME280;5819;49.648;8.330;2024-01-30T09:16:51;101881.72;;;3.00;100.00
11525;BME280;5819;49.648;8.330;2024-01-30T09:19:19;101875.84;;;3.10;100.00
11525;BME280;5819;49.648;8.330;2024-01-30T09:21:47;101868.06;;;3.05;100.00
11525;BME280;5819;49.648;8.330;2024-01-30T09:24:14;101871.53;;;3.07;100.00
11525;BME280;5819;49.648;8.330;2024-01-30T09:26:42;101876.84;;;3.21;100.00
11525;BME280;5819;49.648;8.330;2024-01-30T09:29:10;101874.22;;;3.18;100.00
11525;BME280;5819;49.648;8.330;2024-01-30T09:31:38;101878.53;;;3.19;100.00
11525;BME280;5819;49.648;8.330;2024-01-30T09:34:07;101881.13;;;3.20;100.00
11525;BME280;5819;49.648;8.330;2024-01-30T09:36:35;101886.28;;;3.20;100.00
11525;BME280;5819;49.648;8.330;2024-01-30T09:39:03;101884.63;;;3.27;100.00
11525;BME280;5819;49.648;8.330;2024-01-30T09:41:36;101895.84;;;3.34;100.00
11525;BME280;5819;49.648;8.330;2024-01-30T09:44:09;101878.91;;;3.51;100.00
11525;BME280;5819;49.648;8.330;2024-01-30T09:46:38;101875.56;;;3.59;100.00
11525;BME280;5819;49.648;8.330;2024-01-30T09:49:09;101871.50;;;3.81;100.00
11525;BME280;5819;49.648;8.330;2024-01-30T09:51:37;101878.41;;;3.90;100.00
11525;BME280;5819;49.648;8.330;2024-01-30T09:54:06;101872.56;;;4.06;100.00
11525;BME280;5819;49.648;8.330;2024-01-30T09:56:36;101873.53;;;4.17;100.00
11525;BME280;5819;49.648;8.330;2024-01-30T09:59:04;101883.88;;;4.20;100.00
11525;BME280;5819;49.648;8.330;2024-01-30T10:01:34;101886.28;;;4.03;100.00
11525;BME280;5819;49.648;8.330;2024-01-30T10:04:03;101888.78;;;3.93;100.00
11525;BME280;5819;49.648;8.330;2024-01-30T10:06:34;101887.94;;;3.97;100.00
11525;BME280;5819;49.648;8.330;2024-01-30T10:09:03;101885.50;;;4.09;100.00
11525;BME280;5819;49.648;8.330;2024-01-30T10:11:31;101882.16;;;4.22;100.00
11525;BME280;5819;49.648;8.330;2024-01-30T10:14:00;101878.81;;;4.32;100.00
11525;BME280;5819;49.648;8.330;2024-01-30T10:16:28;101875.31;;;4.25;100.00
11525;BME280;5819;49.648;8.330;2024-01-30T10:18:57;101865.13;;;4.42;100.00
11525;BME280;5819;49.648;8.330;2024-01-30T10:21:25;101868.69;;;4.62;100.00
11525;BME280;5819;49.648;8.330;2024-01-30T10:23:55;101873.88;;;4.64;100.00
11525;BME280;5819;49.648;8.330;2024-01-30T10:26:23;101870.44;;;4.60;100.00
11525;BME280;5819;49.648;8.330;2024-01-30T10:28:51;101867.81;;;4.56;100.00
11525;BME280;5819;49.648;8.330;2024-01-30T10:31:19;101878.22;;;4.74;100.00
11525;BME280;5819;49.648;8.330;2024-01-30T10:33:47;101865.41;;;4.85;100.00
11525;BME280;5819;49.648;8.330;2024-01-30T10:36:17;101856.03;;;4.97;100.00
11525;BME280;5819;49.648;8.330;2024-01-30T10:38:51;101853.44;;;5.02;100.00
11525;BME280;5819;49.648;8.330;2024-01-30T10:41:26;101852.63;;;5.07;100.00
11525;BME280;5819;49.648;8.330;2024-01-30T10:44:01;101850.94;;;5.12;100.00
11525;BME280;5819;49.648;8.330;2024-01-30T10:46:31;101857.00;;;5.34;100.00
11525;BME280;5819;49.648;8.330;2024-01-30T10:49:01;101852.75;;;5.41;100.00
11525;BME280;5819;49.648;8.330;2024-01-30T10:51:32;101840.75;;;5.62;100.00
11525;BME280;5819;49.648;8.330;2024-01-30T10:54:03;101842.50;;;5.83;100.00
11525;BME280;5819;49.648;8.330;2024-01-30T10:56:35;101835.66;;;6.16;100.00
11525;BME280;5819;49.648;8.330;2024-01-30T10:59:03;101846.81;;;6.22;100.00
11525;BME280;5819;49.648;8.330;2024-01-30T11:01:35;101847.72;;;6.12;100.00
11525;BME280;5819;49.648;8.330;2024-01-30T11:04:04;101858.91;;;6.09;100.00
11525;BME280;5819;49.648;8.330;2024-01-30T11:06:40;101852.84;;;6.18;100.00
11525;BME280;5819;49.648;8.330;2024-01-30T11:09:11;101850.31;;;6.26;100.00
11525;BME280;5819;49.648;8.330;2024-01-30T11:11:51;101845.97;;;6.40;100.00
11525;BME280;5819;49.648;8.330;2024-01-30T11:14:23;101834.72;;;6.65;100.00
11525;BME280;5819;49.648;8.330;2024-01-30T11:16:52;101833.00;;;6.56;100.00
11525;BME280;5819;49.648;8.330;2024-01-30T11:19:23;101842.53;;;6.29;100.00
11525;BME280;5819;49.648;8.330;2024-01-30T11:21:53;101842.53;;;6.29;100.00
11525;BME280;5819;49.648;8.330;2024-01-30T11:24:24;101843.41;;;6.29;100.00
11525;BME280;5819;49.648;8.330;2024-01-30T11:26:57;101835.66;;;6.34;100.00
11525;BME280;5819;49.648;8.330;2024-01-30T11:29:27;101834.78;;;6.12;100.00
11525;BME280;5819;49.648;8.330;2024-01-30T11:31:56;101834.78;;;6.20;100.00
11525;BME280;5819;49.648;8.330;2024-01-30T11:34:24;101825.31;;;6.20;100.00
11525;BME280;5819;49.648;8.330;2024-01-30T11:36:56;101824.44;;;6.35;100.00
11525;BME280;5819;49.648;8.330;2024-01-30T11:39:26;101819.28;;;6.23;100.00
11525;BME280;5819;49.648;8.330;2024-01-30T11:41:55;101804.66;;;6.22;100.00
11525;BME280;5819;49.648;8.330;2024-01-30T11:44:24;101800.34;;;6.21;100.00
11525;BME280;5819;49.648;8.330;2024-01-30T11:46:53;101799.44;;;6.26;100.00
11525;BME280;5819;49.648;8.330;2024-01-30T11:49:21;101788.22;;;6.42;100.00
11525;BME280;5819;49.648;8.330;2024-01-30T11:51:52;101785.63;;;6.56;100.00
11525;BME280;5819;49.648;8.330;2024-01-30T11:54:20;101786.47;;;6.50;100.00
11525;BME280;5819;49.648;8.330;2024-01-30T11:56:48;101789.88;;;6.72;100.00
11525;BME280;5819;49.648;8.330;2024-01-30T11:59:16;101777.84;;;6.59;100.00
11525;BME280;5819;49.648;8.330;2024-01-30T12:01:46;101779.56;;;6.65;100.00
11525;BME280;5819;49.648;8.330;2024-01-30T12:04:15;101781.28;;;6.64;100.00
11525;BME280;5819;49.648;8.330;2024-01-30T12:06:43;101783.00;;;6.65;100.00
11525;BME280;5819;49.648;8.330;2024-01-30T12:09:14;101782.13;;;6.69;100.00
11525;BME280;5819;49.648;8.330;2024-01-30T12:11:45;101790.72;;;6.74;100.00
11525;BME280;5819;49.648;8.330;2024-01-30T12:14:14;101778.59;;;6.87;100.00
11525;BME280;5819;49.648;8.330;2024-01-30T12:16:43;101787.19;;;6.95;100.00
11525;BME280;5819;49.648;8.330;2024-01-30T12:19:21;101790.72;;;6.82;100.00
11525;BME280;5819;49.648;8.330;2024-01-30T12:21:54;101792.44;;;6.80;100.00
11525;BME280;5819;49.648;8.330;2024-01-30T12:24:22;101785.50;;;6.86;100.00
11525;BME280;5819;49.648;8.330;2024-01-30T12:26:51;101781.19;;;6.93;100.00
11525;BME280;5819;49.648;8.330;2024-01-30T12:29:20;101769.91;;;7.03;100.00
11525;BME280;5819;49.648;8.330;2024-01-30T12:31:48;101766.41;;;7.13;100.00
11525;BME280;5819;49.648;8.330;2024-01-30T12:34:17;101770.66;;;7.23;100.00
11525;BME280;5819;49.648;8.330;2024-01-30T12:36:47;101768.81;;;7.45;100.00
11525;BME280;5819;49.648;8.330;2024-01-30T12:39:16;101767.94;;;7.44;100.00
11525;BME280;5819;49.648;8.330;2024-01-30T12:41:45;101762.78;;;7.38;100.00
11525;BME280;5819;49.648;8.330;2024-01-30T12:44:14;101760.91;;;7.62;100.00
11525;BME280;5819;49.648;8.330;2024-01-30T12:46:42;101764.31;;;7.68;100.00
11525;BME280;5819;49.648;8.330;2024-01-30T12:49:13;101758.94;;;7.94;100.00
11525;BME280;5819;49.648;8.330;2024-01-30T12:51:42;101752.66;;;8.16;100.00
11525;BME280;5819;49.648;8.330;2024-01-30T12:54:12;101750.06;;;8.18;100.00
11525;BME280;5819;49.648;8.330;2024-01-30T12:56:41;101755.16;;;8.30;100.00
11525;BME280;5819;49.648;8.330;2024-01-30T12:59:09;101749.78;;;8.43;100.00
11525;BME280;5819;49.648;8.330;2024-01-30T13:01:37;101747.16;;;8.50;100.00
11525;BME280;5819;49.648;8.330;2024-01-30T13:04:06;101752.34;;;8.50;100.00
11525;BME280;5819;49.648;8.330;2024-01-30T13:06:35;101747.38;;;8.24;100.00
11525;BME280;5819;49.648;8.330;2024-01-30T13:09:04;101751.69;;;8.25;100.00